St Ives Cornwall, United Kingdom
Current Conditions -  °F | °C
As of 10:50 AM on Sunday 21 Dec 2014 (Local Time) from EGDR Reporting Station
Haze Haze  
Wind Chill: 50°   Ceiling: 1000
Heat Index: 50°   Visibility: 6mi
Dew Point: 48°   Wind: 20mph
Humidity: 94%   Direction: 220°SW
Pressure: 30.42"   Gusts: 31mph
Location:  50.21°N, 5.48°W
Report Text: EGDR 211050Z 22017G27KT 9999 HZ SCT008 BKN010 10/09 Q1030 REDZ GRN BECMG 6000 -DZ SCT006 YLO1
Loading
Personal Weather Stations






























Interactive Weather Map New forecast layout! Learn more

10-Day Weather Forecast

Advertisements
Track Severe Weather on mobile